Airfield :
LOGIN :

Register | Disclaimer

   EN    FR    IT 

 










Legend :    VFR   Marginal VFR   IFR   Intensive IFR   Very Intensive IFR
Visi :
Ceiling :
>= 8 km
>= 3000ft
5 to 8 km
1000 to 3000 ft
1500m to 5 km
500 to 1000 ft
800 to 1500m
200 to 500 ft
< 800m
< 200 ft
Symbols :   Thunderstorms  Fog  Heavy snow  Heavy precipitations  Wind > 20 kt
SIGMETs :     Misc.  Thunderstorms  Icing  Turbulence  Mountain Waves  Volcanic Ashes






- Airport Elevation : -15 ft
- IATA code : RTM


EHRD - Rotterdam Zestienhoven

CURRENT METAR :
  • 212325Z AUTO 26009KT 220V310 9999 NCD 09/03 Q1014 NOSIG

EXPIRED METARs :
  • 212255Z AUTO 26008KT 230V300 9999 FEW040 SCT049 09/03 Q1014 NOSIG
  • 212225Z AUTO 27008KT 230V300 9999 FEW041 09/04 Q1014 NOSIG
  • 212155Z AUTO 27009KT 240V310 9999 NCD 09/04 Q1014 NOSIG
  • 212125Z AUTO 28008KT 240V320 9999 FEW020CB SCT040 BKN045 09/04 Q1014 TEMPO -SHRA
  • 212055Z AUTO 31007KT 250V350 9999 FEW015CB SCT038 08/05 Q1013 RERAUP TEMPO -SHRA

TAF TAF EHRD
Valid from the 22 at 00:00 until the 23 at 06:00 UTC


212313Z 2200/2306 26010KT 9999 SCT035
BECMG 2202/2205 27017G27KT
BECMG 2208/2211 28023G33KT
PROB30
TEMPO 2210/2214 7000 -SHRA SCT020TCU
BECMG 2213/2216 31013KT
TEMPO 2214/2218 6000 SHRA SCT020CB BKN025
BECMG 2218/2221 28006KT
BECMG 2223/2302 VRB03KT



MET'MAP, your aeronautical weather chart ! - Copyright ORBIFLY December 2007 - Disclaimer

ORBIFLY MET'MAP TEAM :

Programming & Development : Alexandra Zaïnal
Concept & original design : Baudouin d'Aumeries
Assistance for programming : Marc-Olivier Méhu
Technical & hardware support : Manuel Goepfert

Contact : metmap@orbifly.com




SOURCES & CREDITS :

   NOAA